createdAt,value
2023-03-27T00:01:16.894Z,85.97
2023-03-27T00:03:44.906Z,87.80
2023-03-27T00:06:17.167Z,48.33
2023-03-27T00:08:51.019Z,52.77
2023-03-27T00:11:19.853Z,66.00
2023-03-27T00:13:49.848Z,50.50
2023-03-27T00:16:27.653Z,48.77
2023-03-27T00:18:55.570Z,44.87
2023-03-27T00:21:22.977Z,55.97
2023-03-27T00:23:50.212Z,43.67
2023-03-27T00:26:17.339Z,54.63
2023-03-27T00:28:44.561Z,41.33
2023-03-27T00:31:14.500Z,52.53
2023-03-27T00:33:42.650Z,35.47
2023-03-27T00:36:10.734Z,33.03
2023-03-27T00:38:39.733Z,33.70
2023-03-27T00:41:08.565Z,31.83
2023-03-27T00:43:42.340Z,33.33
2023-03-27T00:46:15.525Z,46.77
2023-03-27T00:48:47.191Z,51.27
2023-03-27T00:51:15.954Z,31.53
2023-03-27T00:53:44.296Z,32.20
2023-03-27T00:56:12.634Z,44.57
2023-03-27T00:59:03.143Z,74.60
2023-03-27T01:01:32.185Z,69.30
2023-03-27T01:04:06.923Z,75.13
2023-03-27T01:06:34.853Z,66.73
2023-03-27T01:09:01.934Z,74.47
2023-03-27T01:11:52.036Z,76.07
2023-03-27T01:14:19.005Z,85.70
2023-03-27T01:17:31.164Z,77.33
2023-03-27T01:20:47.958Z,90.40
2023-03-27T01:24:00.579Z,82.87
2023-03-27T01:26:43.080Z,74.97
2023-03-27T01:29:33.619Z,102.67
2023-03-27T01:33:00.266Z,105.00
2023-03-27T01:36:03.077Z,70.77
2023-03-27T01:39:11.055Z,79.03
2023-03-27T01:41:54.909Z,88.40
2023-03-27T01:44:55.937Z,88.37
2023-03-27T01:47:56.185Z,77.93
2023-03-27T01:50:33.040Z,76.23
2023-03-27T01:53:05.874Z,88.30
2023-03-27T01:55:39.081Z,70.77
2023-03-27T01:58:20.243Z,76.67
2023-03-27T02:01:04.283Z,76.47
2023-03-27T02:03:36.290Z,75.70
2023-03-27T02:06:10.937Z,64.70
2023-03-27T02:09:01.018Z,69.90
2023-03-27T02:11:38.669Z,84.27
2023-03-27T02:14:20.305Z,84.50
2023-03-27T02:16:54.967Z,104.67
2023-03-27T02:19:33.536Z,102.97
2023-03-27T02:22:01.039Z,95.47
2023-03-27T02:24:28.917Z,118.20
2023-03-27T02:27:07.676Z,144.17
2023-03-27T02:29:56.539Z,120.73
2023-03-27T02:32:44.622Z,87.70
2023-03-27T02:35:35.676Z,98.03
2023-03-27T02:38:31.761Z,84.80
2023-03-27T02:41:20.274Z,87.17
2023-03-27T02:44:24.493Z,73.20
2023-03-27T02:47:36.038Z,65.07
2023-03-27T02:50:18.064Z,73.07
2023-03-27T02:53:01.146Z,79.37
2023-03-27T02:55:34.755Z,66.67
2023-03-27T02:58:12.943Z,76.97
2023-03-27T03:00:52.104Z,83.33
2023-03-27T03:03:57.583Z,72.90
2023-03-27T03:06:44.644Z,56.90
2023-03-27T03:09:14.882Z,71.00
2023-03-27T03:11:52.208Z,49.60
2023-03-27T03:14:25.514Z,74.30
2023-03-27T03:16:52.530Z,68.17
2023-03-27T03:19:19.531Z,76.90
2023-03-27T03:21:49.416Z,77.57
2023-03-27T03:24:17.640Z,63.07
2023-03-27T03:26:45.235Z,59.07
2023-03-27T03:29:14.198Z,55.57
2023-03-27T03:31:49.656Z,65.53
2023-03-27T03:34:18.962Z,71.97
2023-03-27T03:36:50.098Z,66.13
2023-03-27T03:39:22.948Z,51.27
2023-03-27T03:41:50.727Z,54.80
2023-03-27T03:44:18.823Z,53.33
2023-03-27T03:46:45.808Z,59.00
2023-03-27T03:49:12.757Z,62.30
2023-03-27T03:51:39.706Z,66.97
2023-03-27T03:54:07.090Z,42.73
2023-03-27T03:56:34.759Z,43.03
2023-03-27T03:59:01.829Z,40.93
2023-03-27T04:01:30.104Z,56.60
2023-03-27T04:04:02.278Z,60.97
2023-03-27T04:06:48.003Z,45.30
2023-03-27T04:09:15.103Z,44.60
2023-03-27T04:12:04.765Z,43.63
2023-03-27T04:14:55.536Z,46.77
2023-03-27T04:17:43.360Z,58.60
2023-03-27T04:20:15.349Z,48.03
2023-03-27T04:22:46.580Z,36.00
2023-03-27T04:25:17.422Z,40.70
2023-03-27T04:27:45.354Z,30.37
2023-03-27T04:30:22.351Z,29.53
2023-03-27T04:33:19.009Z,34.17
2023-03-27T04:36:05.581Z,36.13
2023-03-27T04:38:42.909Z,41.60
2023-03-27T04:41:11.576Z,35.63
2023-03-27T04:43:41.702Z,42.63
2023-03-27T04:46:09.414Z,31.43
2023-03-27T04:48:38.795Z,39.27
2023-03-27T04:51:18.719Z,31.00
2023-03-27T04:53:46.622Z,30.93
2023-03-27T04:56:14.714Z,34.90
2023-03-27T04:58:45.720Z,37.27
2023-03-27T05:01:15.702Z,28.30
2023-03-27T05:04:06.042Z,29.40
2023-03-27T05:06:43.396Z,33.37
2023-03-27T05:09:14.178Z,47.17
2023-03-27T05:11:41.217Z,46.30
2023-03-27T05:14:09.155Z,44.43
2023-03-27T05:16:38.081Z,43.53
2023-03-27T05:19:06.756Z,51.97
2023-03-27T05:21:49.462Z,38.33
2023-03-27T05:24:16.805Z,48.87
2023-03-27T05:26:45.589Z,30.00
2023-03-27T05:29:12.636Z,36.93
2023-03-27T05:31:43.442Z,41.53
2023-03-27T05:34:38.709Z,41.33
2023-03-27T05:37:09.446Z,48.17
2023-03-27T05:39:56.776Z,40.57
2023-03-27T05:42:23.732Z,41.10
2023-03-27T05:44:51.151Z,32.50
2023-03-27T05:47:20.370Z,41.17
2023-03-27T05:49:47.795Z,41.03
2023-03-27T05:52:16.203Z,29.43
2023-03-27T05:54:43.225Z,49.50
2023-03-27T05:57:11.776Z,41.90
2023-03-27T05:59:40.686Z,36.00
2023-03-27T06:02:21.405Z,41.00
2023-03-27T06:04:56.450Z,44.33
2023-03-27T06:07:35.975Z,63.30
2023-03-27T06:10:13.781Z,61.47
2023-03-27T06:12:46.422Z,62.57
2023-03-27T06:15:29.519Z,40.30
2023-03-27T06:18:09.644Z,48.53
2023-03-27T06:20:40.620Z,24.57
2023-03-27T06:23:09.164Z,26.80
2023-03-27T06:25:39.315Z,31.27
2023-03-27T06:28:09.498Z,45.33
2023-03-27T06:30:43.145Z,60.67
2023-03-27T06:33:32.789Z,43.13
2023-03-27T06:36:05.372Z,31.37
2023-03-27T06:38:37.189Z,47.73
2023-03-27T06:41:05.640Z,35.47
2023-03-27T06:43:57.262Z,91.60
2023-03-27T06:46:45.981Z,178.90
2023-03-27T06:49:19.113Z,157.50
2023-03-27T06:51:46.766Z,53.60
2023-03-27T06:54:14.673Z,25.97
2023-03-27T06:56:50.585Z,100.30
2023-03-27T06:59:22.148Z,50.43
2023-03-27T07:01:54.744Z,124.73
2023-03-27T07:04:54.173Z,181.20
2023-03-27T07:07:34.910Z,60.37
2023-03-27T07:10:05.707Z,123.33
2023-03-27T07:12:32.718Z,73.80
2023-03-27T07:15:00.853Z,80.07
2023-03-27T07:17:41.865Z,79.27
2023-03-27T07:20:14.900Z,75.63
2023-03-27T07:22:44.529Z,64.73
2023-03-27T07:25:22.607Z,40.97
2023-03-27T07:27:50.964Z,78.30
2023-03-27T07:30:18.513Z,60.70
2023-03-27T07:32:47.050Z,156.67
2023-03-27T07:35:15.091Z,190.10
2023-03-27T07:37:42.809Z,130.33
2023-03-27T07:40:38.991Z,81.63
2023-03-27T07:43:39.187Z,28.73
2023-03-27T07:46:08.557Z,103.97
2023-03-27T07:48:35.954Z,18.33
2023-03-27T07:51:13.401Z,57.43
2023-03-27T07:53:41.848Z,52.47
2023-03-27T07:56:21.998Z,149.93
2023-03-27T07:58:51.528Z,143.03
2023-03-27T08:01:21.535Z,87.13
2023-03-27T08:03:49.604Z,48.80
2023-03-27T08:06:19.273Z,85.30
2023-03-27T08:08:47.218Z,54.13
2023-03-27T08:11:23.543Z,112.63
2023-03-27T08:13:54.852Z,31.20
2023-03-27T08:16:21.924Z,106.90
2023-03-27T08:18:49.789Z,77.23
2023-03-27T08:21:17.398Z,118.27
2023-03-27T08:23:48.935Z,129.43
2023-03-27T08:26:27.827Z,139.30
2023-03-27T08:29:01.854Z,130.47
2023-03-27T08:31:31.318Z,133.33
2023-03-27T08:34:01.263Z,139.50
2023-03-27T08:36:38.324Z,39.13
2023-03-27T08:39:08.073Z,150.40
2023-03-27T08:41:55.754Z,55.00
2023-03-27T08:44:31.185Z,58.57
2023-03-27T08:47:25.211Z,60.57
2023-03-27T08:50:05.505Z,64.33
2023-03-27T08:52:45.127Z,96.97
2023-03-27T08:55:28.712Z,89.00
2023-03-27T08:58:04.782Z,169.47
2023-03-27T09:00:39.502Z,166.10
2023-03-27T09:03:44.979Z,169.77
2023-03-27T09:06:26.333Z,143.20
2023-03-27T09:09:07.602Z,145.23
2023-03-27T09:12:23.600Z,154.50
2023-03-27T09:15:03.224Z,122.97
2023-03-27T09:17:39.167Z,128.47
2023-03-27T09:20:33.890Z,116.53
2023-03-27T09:23:25.970Z,112.17
2023-03-27T09:26:19.468Z,121.10
2023-03-27T09:29:05.272Z,79.00
2023-03-27T09:31:49.585Z,94.37
2023-03-27T09:34:34.297Z,12.57
2023-03-27T09:37:02.579Z,16.40
2023-03-27T09:39:33.924Z,393.60
2023-03-27T09:42:26.856Z,205.03
2023-03-27T09:44:58.610Z,149.67
2023-03-27T09:47:41.252Z,142.80
2023-03-27T09:50:28.802Z,138.50
2023-03-27T09:53:11.877Z,185.83
2023-03-27T09:56:12.896Z,193.00
2023-03-27T09:58:50.738Z,188.70
2023-03-27T10:01:38.628Z,169.00
2023-03-27T10:04:18.890Z,177.87
2023-03-27T10:07:01.722Z,148.37
2023-03-27T10:10:17.483Z,170.83
2023-03-27T10:13:14.181Z,158.30
2023-03-27T10:15:48.650Z,146.00
2023-03-27T10:18:30.034Z,162.57
2023-03-27T10:21:11.794Z,164.40
2023-03-27T10:23:43.999Z,162.60
2023-03-27T10:26:27.870Z,170.83
2023-03-27T10:29:05.150Z,171.90
2023-03-27T10:31:52.061Z,159.40
2023-03-27T10:34:51.973Z,200.27
2023-03-27T10:37:34.367Z,192.20
2023-03-27T10:40:25.547Z,181.67
2023-03-27T10:43:01.582Z,171.00
2023-03-27T10:45:30.275Z,179.03
2023-03-27T10:48:01.662Z,202.50
2023-03-27T10:50:45.569Z,170.03
2023-03-27T10:53:21.790Z,182.77
2023-03-27T10:56:24.965Z,176.20
2023-03-27T10:59:01.797Z,173.70
2023-03-27T11:01:42.453Z,171.20
2023-03-27T11:04:25.742Z,189.53
2023-03-27T11:07:06.444Z,173.93
2023-03-27T11:09:48.381Z,184.63
2023-03-27T11:12:18.867Z,171.20
2023-03-27T11:15:14.659Z,172.00
2023-03-27T11:18:03.455Z,183.40
2023-03-27T11:21:03.676Z,177.60
2023-03-27T11:23:54.501Z,170.93
2023-03-27T11:26:35.838Z,172.73
2023-03-27T11:29:13.899Z,172.50
2023-03-27T11:31:54.430Z,173.43
2023-03-27T11:34:38.258Z,170.20
2023-03-27T11:37:39.676Z,169.33
2023-03-27T11:40:42.769Z,172.23
2023-03-27T11:43:16.449Z,171.23
2023-03-27T11:46:33.553Z,174.17
2023-03-27T11:49:27.960Z,170.87
2023-03-27T11:52:10.649Z,160.50
2023-03-27T11:54:40.649Z,177.23
2023-03-27T11:57:24.652Z,154.43
2023-03-27T12:00:11.683Z,170.70
2023-03-27T12:03:34.700Z,168.57
2023-03-27T12:06:14.655Z,173.27
2023-03-27T12:09:11.242Z,170.83
2023-03-27T12:12:34.503Z,174.27
2023-03-27T12:15:35.603Z,173.47
2023-03-27T12:18:36.307Z,169.53
2023-03-27T12:21:32.691Z,172.90
2023-03-27T12:24:36.565Z,169.70
2023-03-27T12:27:49.227Z,175.90
2023-03-27T12:31:11.532Z,170.40
2023-03-27T12:34:03.578Z,161.40
2023-03-27T12:36:38.619Z,169.13
2023-03-27T12:39:20.137Z,168.77
2023-03-27T12:41:47.730Z,171.43
2023-03-27T12:44:32.280Z,161.27
2023-03-27T12:47:09.046Z,154.50
2023-03-27T12:49:47.969Z,151.33
2023-03-27T12:52:28.583Z,172.47
2023-03-27T12:55:18.933Z,171.93
2023-03-27T12:58:00.649Z,170.43
2023-03-27T13:01:00.197Z,172.73
2023-03-27T13:04:18.976Z,172.97
2023-03-27T13:07:09.003Z,170.93
2023-03-27T13:10:38.415Z,173.97
2023-03-27T13:13:31.653Z,166.10
2023-03-27T13:16:36.967Z,84.67
2023-03-27T13:19:15.319Z,165.37
2023-03-27T13:22:33.196Z,150.10
2023-03-27T13:25:35.715Z,121.63
2023-03-27T13:28:35.704Z,104.73
2023-03-27T13:31:14.795Z,97.20
2023-03-27T13:34:34.232Z,102.23
2023-03-27T13:37:16.683Z,56.80
2023-03-27T13:40:27.749Z,117.13
2023-03-27T13:43:16.910Z,139.67
2023-03-27T13:45:52.205Z,110.30
2023-03-27T13:49:07.182Z,135.40
2023-03-27T13:52:41.631Z,133.73
2023-03-27T13:55:47.160Z,147.00
2023-03-27T13:59:38.639Z,160.97
2023-03-27T14:02:38.791Z,179.47
2023-03-27T14:05:36.637Z,172.67
2023-03-27T14:08:33.290Z,148.43
2023-03-27T14:11:47.183Z,163.67
2023-03-27T14:14:51.553Z,128.57
2023-03-27T14:17:25.467Z,152.77
2023-03-27T14:20:06.497Z,80.03
2023-03-27T14:22:54.582Z,43.37
2023-03-27T14:25:38.350Z,83.77
2023-03-27T14:28:46.797Z,143.33
2023-03-27T14:31:19.081Z,161.63
2023-03-27T14:34:22.346Z,169.03
2023-03-27T14:36:52.260Z,130.53
2023-03-27T14:39:39.595Z,157.27
2023-03-27T14:42:17.078Z,176.40
2023-03-27T14:44:47.850Z,66.13
2023-03-27T14:47:22.811Z,172.37
2023-03-27T14:49:53.832Z,163.60
2023-03-27T14:52:35.762Z,110.63
2023-03-27T14:55:26.886Z,45.10
2023-03-27T14:58:19.265Z,130.33
2023-03-27T15:01:00.349Z,51.90
2023-03-27T15:03:35.329Z,67.37
2023-03-27T15:06:19.420Z,155.47
2023-03-27T15:08:55.877Z,159.10
2023-03-27T15:11:59.016Z,142.83
2023-03-27T15:14:31.383Z,137.90
2023-03-27T15:17:06.763Z,129.00
2023-03-27T15:19:45.673Z,70.10
2023-03-27T15:22:27.653Z,20.93
2023-03-27T15:25:23.124Z,95.57
2023-03-27T15:27:55.154Z,45.17
2023-03-27T15:30:43.719Z,58.07
2023-03-27T15:33:21.997Z,157.57
2023-03-27T15:35:53.677Z,175.20
2023-03-27T15:38:29.228Z,184.90
2023-03-27T15:41:27.054Z,172.73
2023-03-27T15:44:04.585Z,171.40
2023-03-27T15:46:47.059Z,170.03
2023-03-27T15:49:28.526Z,171.37
2023-03-27T15:51:57.356Z,165.13
2023-03-27T15:54:33.311Z,171.17
2023-03-27T15:57:11.616Z,172.50
2023-03-27T15:59:52.067Z,173.43
2023-03-27T16:02:21.880Z,182.63
2023-03-27T16:04:56.622Z,173.90
2023-03-27T16:07:27.907Z,180.23
2023-03-27T16:10:02.692Z,174.93
2023-03-27T16:12:52.486Z,169.53
2023-03-27T16:15:41.452Z,176.30
2023-03-27T16:18:34.379Z,169.13
2023-03-27T16:21:10.257Z,186.67
2023-03-27T16:23:37.397Z,162.00
2023-03-27T16:26:09.067Z,161.30
2023-03-27T16:28:36.508Z,158.40
2023-03-27T16:31:19.787Z,155.87
2023-03-27T16:33:47.101Z,146.60
2023-03-27T16:36:20.868Z,156.97
2023-03-27T16:38:47.873Z,162.03
2023-03-27T16:41:17.717Z,160.60
2023-03-27T16:43:45.485Z,160.73
2023-03-27T16:46:26.521Z,161.60
2023-03-27T16:48:54.965Z,157.70
2023-03-27T16:51:25.148Z,158.47
2023-03-27T16:53:53.003Z,159.47
2023-03-27T16:56:21.241Z,157.67
2023-03-27T16:58:48.215Z,163.30
2023-03-27T17:01:15.324Z,159.47
2023-03-27T17:03:42.361Z,156.60
2023-03-27T17:06:12.486Z,159.40
2023-03-27T17:08:39.544Z,156.50
2023-03-27T17:11:13.196Z,156.47
2023-03-27T17:13:43.466Z,155.43
2023-03-27T17:16:11.207Z,160.80
2023-03-27T17:18:38.180Z,164.47
2023-03-27T17:21:05.690Z,159.73
2023-03-27T17:23:33.013Z,160.90
2023-03-27T17:26:04.788Z,129.20
2023-03-27T17:28:32.123Z,169.77
2023-03-27T17:31:04.661Z,154.83
2023-03-27T17:33:33.544Z,164.93
2023-03-27T17:36:00.768Z,152.80
2023-03-27T17:38:28.518Z,159.60
2023-03-27T17:40:55.663Z,157.13
2023-03-27T17:43:22.628Z,158.33
2023-03-27T17:45:51.111Z,161.77
2023-03-27T17:48:18.423Z,158.73
2023-03-27T17:51:01.138Z,160.17
2023-03-27T17:53:35.744Z,164.63
2023-03-27T17:56:02.856Z,161.43
2023-03-27T17:58:31.290Z,163.90
2023-03-27T18:00:58.278Z,154.73
2023-03-27T18:03:25.490Z,152.10
2023-03-27T18:05:52.774Z,153.67
2023-03-27T18:08:20.012Z,152.77
2023-03-27T18:10:50.484Z,151.40
2023-03-27T18:13:18.887Z,153.20
2023-03-27T18:15:46.408Z,153.60
2023-03-27T18:18:13.432Z,155.23
2023-03-27T18:20:40.890Z,156.17
2023-03-27T18:23:07.881Z,133.70
2023-03-27T18:25:34.796Z,111.37
2023-03-27T18:28:01.778Z,89.40
2023-03-27T18:30:30.979Z,121.60
2023-03-27T18:32:59.212Z,145.30
2023-03-27T18:35:26.258Z,124.67
2023-03-27T18:37:53.210Z,144.77
2023-03-27T18:40:20.541Z,141.77
2023-03-27T18:42:47.581Z,142.63
2023-03-27T18:45:16.871Z,143.53
2023-03-27T18:47:44.915Z,144.60
2023-03-27T18:50:14.044Z,133.50
2023-03-27T18:52:41.703Z,134.10
2023-03-27T18:55:09.999Z,149.63
2023-03-27T18:57:38.173Z,147.53
2023-03-27T19:00:09.826Z,147.47
2023-03-27T19:02:36.990Z,150.37
2023-03-27T19:05:04.859Z,143.53
2023-03-27T19:07:31.891Z,141.50
2023-03-27T19:09:58.872Z,143.57
2023-03-27T19:12:32.098Z,152.77
2023-03-27T19:15:32.090Z,146.00
2023-03-27T19:18:02.391Z,146.17
2023-03-27T19:20:48.022Z,140.73
2023-03-27T19:23:31.697Z,143.70
2023-03-27T19:26:11.324Z,145.67
2023-03-27T19:28:42.400Z,148.67
2023-03-27T19:31:11.745Z,148.97
2023-03-27T19:33:42.347Z,146.57
2023-03-27T19:36:10.076Z,148.60
2023-03-27T19:38:38.544Z,150.40
2023-03-27T19:41:09.386Z,143.03
2023-03-27T19:43:37.125Z,146.63
2023-03-27T19:46:15.796Z,149.80
2023-03-27T19:48:51.330Z,151.50
2023-03-27T19:51:26.961Z,141.73
2023-03-27T19:53:55.515Z,134.87
2023-03-27T19:56:24.949Z,152.33
2023-03-27T19:58:52.359Z,150.57
2023-03-27T20:01:20.102Z,154.57
2023-03-27T20:03:47.284Z,153.63
2023-03-27T20:06:19.486Z,144.80
2023-03-27T20:08:46.589Z,159.17
2023-03-27T20:11:15.750Z,174.70
2023-03-27T20:13:55.590Z,178.73
2023-03-27T20:16:26.340Z,148.07
2023-03-27T20:18:55.453Z,150.23
2023-03-27T20:21:25.559Z,143.63
2023-03-27T20:23:55.717Z,152.90
2023-03-27T20:26:39.248Z,138.67
2023-03-27T20:29:23.297Z,135.10
2023-03-27T20:31:50.464Z,136.93
2023-03-27T20:34:19.738Z,142.03
2023-03-27T20:36:47.468Z,135.07
2023-03-27T20:39:27.251Z,127.47
2023-03-27T20:41:58.828Z,127.00
2023-03-27T20:44:36.448Z,120.17
2023-03-27T20:47:10.830Z,126.73
2023-03-27T20:49:42.973Z,126.17
2023-03-27T20:52:13.589Z,119.93
2023-03-27T20:54:41.252Z,118.73
2023-03-27T20:57:11.268Z,125.97
2023-03-27T20:59:38.439Z,142.80
2023-03-27T21:02:06.034Z,119.07
2023-03-27T21:04:33.169Z,122.37
2023-03-27T21:07:00.196Z,28.90
2023-03-27T21:09:27.951Z,21.50
2023-03-27T21:11:56.158Z,18.80
2023-03-27T21:14:23.643Z,14.97
2023-03-27T21:16:51.150Z,17.83
2023-03-27T21:19:20.624Z,18.17
2023-03-27T21:21:47.966Z,13.13
2023-03-27T21:24:15.500Z,20.40
2023-03-27T21:26:42.891Z,20.90
2023-03-27T21:29:10.783Z,20.73
2023-03-27T21:31:41.427Z,19.97
2023-03-27T21:34:09.040Z,20.10
2023-03-27T21:36:37.889Z,18.97
2023-03-27T21:39:05.532Z,12.77
2023-03-27T21:41:32.615Z,13.37
2023-03-27T21:43:59.547Z,13.73
2023-03-27T21:46:26.792Z,16.47
2023-03-27T21:48:53.767Z,14.50
2023-03-27T21:51:21.195Z,11.97
2023-03-27T21:53:48.423Z,13.37
2023-03-27T21:56:15.651Z,14.70
2023-03-27T21:58:42.667Z,9.50
2023-03-27T22:01:09.775Z,18.30
2023-03-27T22:03:36.779Z,14.53
2023-03-27T22:06:12.391Z,15.17
2023-03-27T22:08:42.712Z,12.70
2023-03-27T22:11:11.612Z,14.90
2023-03-27T22:13:39.117Z,13.43
2023-03-27T22:16:12.327Z,12.63
2023-03-27T22:18:39.964Z,13.90
2023-03-27T22:21:26.311Z,11.80
2023-03-27T22:23:56.270Z,12.80
2023-03-27T22:26:30.740Z,13.53
2023-03-27T22:28:58.028Z,11.63
2023-03-27T22:31:26.225Z,10.87
2023-03-27T22:33:53.934Z,11.90
2023-03-27T22:36:21.465Z,13.63
2023-03-27T22:38:49.009Z,14.73
2023-03-27T22:41:16.848Z,13.30
2023-03-27T22:43:44.124Z,15.57
2023-03-27T22:46:15.751Z,17.17
2023-03-27T22:48:43.206Z,20.03
2023-03-27T22:51:12.449Z,34.33
2023-03-27T22:53:40.873Z,31.30
2023-03-27T22:56:08.579Z,39.87
2023-03-27T22:58:35.650Z,43.13
2023-03-27T23:01:05.368Z,53.10
2023-03-27T23:03:32.857Z,129.60
2023-03-27T23:06:00.038Z,282.53
2023-03-27T23:08:28.569Z,220.10
2023-03-27T23:11:05.497Z,194.57
2023-03-27T23:13:34.911Z,106.73
2023-03-27T23:16:02.406Z,131.40
2023-03-27T23:18:29.555Z,61.33
2023-03-27T23:20:59.542Z,60.63
2023-03-27T23:23:28.425Z,35.17
2023-03-27T23:25:57.754Z,39.83
2023-03-27T23:28:26.570Z,38.23
2023-03-27T23:30:59.601Z,38.10
2023-03-27T23:33:28.308Z,29.03
2023-03-27T23:36:22.171Z,33.40
2023-03-27T23:38:51.463Z,24.63
2023-03-27T23:41:19.508Z,27.00
2023-03-27T23:43:46.820Z,31.87
2023-03-27T23:46:14.433Z,26.37
2023-03-27T23:48:43.335Z,17.63
2023-03-27T23:51:12.894Z,13.03
2023-03-27T23:53:40.447Z,14.50
2023-03-27T23:56:08.172Z,11.53
2023-03-27T23:58:37.190Z,17.03
